Time;durP1;ratioP1;P1;durP2;ratioP2;P2;SDS_P1;SDS_P2;PMS_P1;PMS_P2;Temp;Humidity;BMP_temperature;BMP_pressure;BME280_temperature;BME280_humidity;BME280_pressure;Samples;Min_cycle;Max_cycle;Signal;HPM_P1;HPM_P2
2023/03/07 06:53:37;;;;;;;4.95;3.58;;;;;;;;;;10556415;27;20392;-83
2023/03/07 06:58:38;;;;;;;5.35;3.60;;;;;;;;;;10540928;28;20024;-83
2023/03/07 07:03:42;;;;;;;6.80;5.25;;;;;;;;;;10569805;28;20035;-83
2023/03/07 07:08:49;;;;;;;8.02;6.43;;;;;;;;;;10584022;28;20016;-84
2023/03/07 07:13:50;;;;;;;7.80;6.60;;;;;;;;;;10550824;28;20067;-84
2023/03/07 07:18:52;;;;;;;6.25;4.65;;;;;;;;;;10543461;28;20100;-84
2023/03/07 07:23:55;;;;;;;6.75;5.68;;;;;;;;;;10541374;28;20032;-83
2023/03/07 07:28:58;;;;;;;6.63;5.85;;;;;;;;;;10541722;28;20028;-84
2023/03/07 07:33:59;;;;;;;8.90;7.53;;;;;;;;;;10541682;28;20031;-84
2023/03/07 07:39:04;;;;;;;5.80;4.20;;;;;;;;;;10540948;28;20033;-84
2023/03/07 07:44:08;;;;;;;5.40;4.60;;;;;;;;;;10541589;28;20035;-84
2023/03/07 07:49:09;;;;;;;6.15;5.55;;;;;;;;;;10551300;28;20054;-84
2023/03/07 07:54:10;;;;;;;10.13;7.97;;;;;;;;;;10568069;28;20031;-84
2023/03/07 07:59:11;;;;;;;3.80;3.40;;;;;;;;;;10568959;28;20025;-84
2023/03/07 08:04:12;;;;;;;3.80;2.60;;;;;;;;;;10543643;28;20021;-80
2023/03/07 08:09:13;;;;;;;2.65;2.05;;;;;;;;;;10526834;28;20120;-80
2023/03/07 08:14:15;;;;;;;3.03;2.35;;;;;;;;;;10513141;28;20051;-80
2023/03/07 08:19:16;;;;;;;;;;;;;;;;;;10513449;28;20035;-80
2023/03/07 08:24:17;;;;;;;;;;;;;;;;;;10515815;28;19904;-81
2023/03/07 08:29:18;;;;;;;4.57;3.40;;;;;;;;;;10510246;28;19908;-82
2023/03/07 08:34:20;;;;;;;3.33;2.30;;;;;;;;;;10508910;28;20143;-80
2023/03/07 08:39:21;;;;;;;3.50;2.45;;;;;;;;;;10510370;28;20131;-82
2023/03/07 08:44:22;;;;;;;3.47;2.53;;;;;;;;;;10508366;28;20039;-80
2023/03/07 08:49:23;;;;;;;5.10;1.98;;;;;;;;;;10507484;28;20098;-80
2023/03/07 08:54:24;;;;;;;3.80;3.00;;;;;;;;;;10507010;28;20096;-80
2023/03/07 08:59:25;;;;;;;3.25;2.33;;;;;;;;;;10507449;28;20063;-79
2023/03/07 09:04:26;;;;;;;2.50;1.75;;;;;;;;;;10507219;28;20080;-79
2023/03/07 09:09:31;;;;;;;1.80;1.33;;;;;;;;;;10511025;28;20127;-79
2023/03/07 09:14:32;;;;;;;3.30;1.65;;;;;;;;;;10508677;28;20077;-80
2023/03/07 09:19:34;;;;;;;1.80;1.33;;;;;;;;;;10505626;28;20561;-80
2023/03/07 09:24:35;;;;;;;2.38;1.20;;;;;;;;;;10504712;28;20039;-80
2023/03/07 09:29:36;;;;;;;2.72;1.25;;;;;;;;;;10505756;28;20027;-80
2023/03/07 09:34:37;;;;;;;2.05;1.20;;;;;;;;;;10504365;28;20032;-80
2023/03/07 09:39:38;;;;;;;1.90;1.50;;;;;;;;;;10506075;28;20028;-81
2023/03/07 09:44:39;;;;;;;;;;;;;;;;;;10507842;28;20455;-80
2023/03/07 09:49:44;;;;;;;1.70;1.10;;;;;;;;;;10505839;28;19920;-82
2023/03/07 09:54:49;;;;;;;2.03;1.10;;;;;;;;;;10504190;28;20029;-80
2023/03/07 10:00:00;;;;;;;2.17;1.10;;;;;;;;;;10505778;28;20111;-80
2023/03/07 10:05:21;;;;;;;2.47;1.50;;;;;;;;;;10514180;28;20107;-80
2023/03/07 10:10:22;;;;;;;1.52;1.00;;;;;;;;;;10512512;28;20024;-80
2023/03/07 10:15:36;;;;;;;1.80;1.25;;;;;;;;;;10514662;28;20060;-80
2023/03/07 10:20:41;;;;;;;2.28;1.23;;;;;;;;;;10513141;28;20089;-79
2023/03/07 10:26:01;;;;;;;1.95;1.42;;;;;;;;;;10511247;28;20032;-78
2023/03/07 10:31:12;;;;;;;3.45;1.65;;;;;;;;;;10510542;28;20029;-78
2023/03/07 10:36:21;;;;;;;2.10;1.67;;;;;;;;;;10508194;28;20033;-78
2023/03/07 10:41:22;;;;;;;1.80;1.13;;;;;;;;;;10505168;28;20039;-79
2023/03/07 10:46:23;;;;;;;;;;;;;;;;;;10509528;28;20029;-78
2023/03/07 10:51:43;;;;;;;1.95;1.30;;;;;;;;;;10507217;28;19917;-77
2023/03/07 10:57:02;;;;;;;3.55;2.15;;;;;;;;;;10509082;28;20028;-79
2023/03/07 11:02:04;;;;;;;4.13;2.65;;;;;;;;;;10508386;28;20025;-78
2023/03/07 11:07:22;;;;;;;6.97;4.45;;;;;;;;;;10506000;28;20025;-79
2023/03/07 11:12:24;;;;;;;4.63;3.97;;;;;;;;;;10509269;28;20032;-79
2023/03/07 11:17:38;;;;;;;4.05;3.00;;;;;;;;;;10509492;28;20027;-79
2023/03/07 11:22:39;;;;;;;3.47;2.75;;;;;;;;;;10503482;28;20029;-80
2023/03/07 11:27:46;;;;;;;3.75;2.78;;;;;;;;;;10502659;28;20119;-79
2023/03/07 11:32:52;;;;;;;2.50;2.03;;;;;;;;;;10502767;28;20094;-79
2023/03/07 11:38:11;;;;;;;2.83;2.08;;;;;;;;;;10506008;28;20016;-78
2023/03/07 11:43:21;;;;;;;2.58;2.00;;;;;;;;;;10511102;28;20391;-79
2023/03/07 11:48:28;;;;;;;2.83;1.50;;;;;;;;;;10519426;28;20032;-78
2023/03/07 11:53:41;;;;;;;2.20;1.50;;;;;;;;;;10518386;28;20107;-78
2023/03/07 11:58:54;;;;;;;2.55;1.70;;;;;;;;;;10540465;28;20044;-78
2023/03/07 12:03:58;;;;;;;2.47;1.30;;;;;;;;;;10514113;28;20044;-78
2023/03/07 12:08:59;;;;;;;15.02;11.95;;;;;;;;;;10510688;28;20032;-78
2023/03/07 12:14:00;;;;;;;1.88;1.38;;;;;;;;;;10510131;28;20126;-79
2023/03/07 12:19:01;;;;;;;;;;;;;;;;;;10511266;28;20120;-79
2023/03/07 12:24:06;;;;;;;4.40;3.20;;;;;;;;;;10509998;28;19905;-80
2023/03/07 12:29:15;;;;;;;3.08;2.30;;;;;;;;;;10507434;28;20039;-80
2023/03/07 12:34:20;;;;;;;3.25;2.60;;;;;;;;;;10507923;28;20028;-79
2023/03/07 12:39:22;;;;;;;4.40;3.33;;;;;;;;;;10507583;28;20032;-79
2023/03/07 12:44:30;;;;;;;3.55;2.38;;;;;;;;;;10508952;28;20024;-79
2023/03/07 12:49:37;;;;;;;3.38;1.70;;;;;;;;;;10505158;28;20040;-80
2023/03/07 12:54:40;;;;;;;3.67;2.20;;;;;;;;;;10507527;28;20025;-79
2023/03/07 12:59:42;;;;;;;3.13;2.05;;;;;;;;;;10508349;28;20082;-80
2023/03/07 13:04:43;;;;;;;2.58;1.98;;;;;;;;;;10510565;28;20029;-78
2023/03/07 13:09:46;;;;;;;2.97;1.80;;;;;;;;;;10517038;28;20052;-79
2023/03/07 13:15:04;;;;;;;3.35;2.35;;;;;;;;;;10506135;28;20024;-79
2023/03/07 13:20:14;;;;;;;3.55;2.17;;;;;;;;;;10503000;28;20024;-78
2023/03/07 13:25:21;;;;;;;3.87;2.00;;;;;;;;;;10502063;28;20025;-78
2023/03/07 13:30:29;;;;;;;3.90;2.30;;;;;;;;;;10504353;28;20147;-79
2023/03/07 13:35:33;;;;;;;3.15;2.08;;;;;;;;;;10504448;28;20024;-79
2023/03/07 13:40:43;;;;;;;2.85;1.73;;;;;;;;;;10504814;28;20493;-79
2023/03/07 13:45:51;;;;;;;3.63;2.40;;;;;;;;;;10503749;28;20024;-79
2023/03/07 13:50:55;;;;;;;3.60;2.60;;;;;;;;;;10504068;28;20033;-78
2023/03/07 13:56:00;;;;;;;3.22;1.98;;;;;;;;;;10502355;28;20086;-79
2023/03/07 14:01:03;;;;;;;3.15;1.70;;;;;;;;;;10502997;28;20029;-79
2023/03/07 14:06:13;;;;;;;2.67;1.90;;;;;;;;;;10502735;28;20032;-79
2023/03/07 14:11:34;;;;;;;2.30;1.50;;;;;;;;;;10502803;28;20047;-79
2023/03/07 14:16:47;;;;;;;2.20;1.40;;;;;;;;;;10492459;28;20032;-79
2023/03/07 14:21:59;;;;;;;2.75;1.65;;;;;;;;;;10506483;28;20024;-79
2023/03/07 14:27:04;;;;;;;1.92;1.70;;;;;;;;;;10503480;28;20040;-79
2023/03/07 14:32:19;;;;;;;2.80;1.88;;;;;;;;;;10501408;28;20494;-79
2023/03/07 14:37:22;;;;;;;2.97;1.80;;;;;;;;;;10503328;28;20035;-80
2023/03/07 14:42:27;;;;;;;2.00;1.58;;;;;;;;;;10504046;28;20104;-79
2023/03/07 14:47:44;;;;;;;2.30;1.42;;;;;;;;;;10503448;28;20025;-80
2023/03/07 14:52:46;;;;;;;2.80;2.10;;;;;;;;;;10503936;28;20043;-81
2023/03/07 14:57:51;;;;;;;3.25;2.03;;;;;;;;;;10509652;28;20096;-80
2023/03/07 15:02:57;;;;;;;2.08;1.70;;;;;;;;;;10509467;28;20029;-81
2023/03/07 15:07:58;;;;;;;3.63;2.17;;;;;;;;;;10511070;28;20025;-80
2023/03/07 15:12:59;;;;;;;2.67;2.30;;;;;;;;;;10511418;28;20039;-80
2023/03/07 15:18:06;;;;;;;2.80;2.13;;;;;;;;;;10512016;28;20021;-79
2023/03/07 15:23:08;;;;;;;3.67;2.00;;;;;;;;;;10510730;28;20107;-80
2023/03/07 15:28:17;;;;;;;3.17;1.73;;;;;;;;;;10515209;28;20040;-79
2023/03/07 15:33:18;;;;;;;3.42;1.80;;;;;;;;;;10513876;28;20138;-78
2023/03/07 15:38:24;;;;;;;3.03;2.17;;;;;;;;;;10513432;28;20025;-79
2023/03/07 15:43:27;;;;;;;3.90;2.60;;;;;;;;;;10518811;28;20021;-79
2023/03/07 15:48:35;;;;;;;3.22;2.30;;;;;;;;;;10521026;28;20032;-79
2023/03/07 15:53:38;;;;;;;3.05;2.45;;;;;;;;;;10517892;28;20037;-78
2023/03/07 15:58:43;;;;;;;2.92;2.30;;;;;;;;;;10514193;28;20115;-79
2023/03/07 16:03:49;;;;;;;4.70;3.97;;;;;;;;;;10542492;28;20029;-76
2023/03/07 16:08:50;;;;;;;4.40;2.80;;;;;;;;;;10533094;28;20021;-79
2023/03/07 16:13:51;;;;;;;3.92;3.33;;;;;;;;;;10513671;28;20375;-79
2023/03/07 16:18:52;;;;;;;;;;;;;;;;;;10514095;28;20074;-78
2023/03/07 16:23:53;;;;;;;3.10;1.98;;;;;;;;;;10511361;28;19904;-78
2023/03/07 16:28:54;;;;;;;;;;;;;;;;;;10510774;28;20024;-79
2023/03/07 16:33:56;;;;;;;2.78;1.80;;;;;;;;;;10508859;28;19908;-78
2023/03/07 16:38:57;;;;;;;2.45;1.70;;;;;;;;;;10507956;28;20050;-78
2023/03/07 16:43:58;;;;;;;2.95;1.60;;;;;;;;;;10510939;28;20055;-79
2023/03/07 16:48:59;;;;;;;1.73;1.40;;;;;;;;;;10511487;28;20035;-78
2023/03/07 16:54:01;;;;;;;;;;;;;;;;;;10511814;28;20115;-79
2023/03/07 16:59:02;;;;;;;2.80;1.48;;;;;;;;;;10514717;28;19975;-79
2023/03/07 17:04:03;;;;;;;;;;;;;;;;;;10519502;28;20024;-78
2023/03/07 17:09:05;;;;;;;2.25;1.52;;;;;;;;;;10520653;28;19998;-78
2023/03/07 17:14:10;;;;;;;2.15;1.40;;;;;;;;;;10511226;28;20023;-79
2023/03/07 17:19:18;;;;;;;2.63;1.08;;;;;;;;;;10512168;28;20032;-82
2023/03/07 17:24:20;;;;;;;2.33;1.45;;;;;;;;;;10522988;28;20032;-83
2023/03/07 17:29:26;;;;;;;3.20;2.28;;;;;;;;;;10522224;28;20545;-84
2023/03/07 17:34:46;;;;;;;;;;;;;;;;;;10520598;28;20095;-84
2023/03/07 17:39:47;;;;;;;2.00;1.10;;;;;;;;;;10521531;28;19940;-82
2023/03/07 17:44:48;;;;;;;1.58;1.02;;;;;;;;;;10527731;28;20033;-82
2023/03/07 17:49:49;;;;;;;;;;;;;;;;;;10522397;28;20096;-83
2023/03/07 17:55:07;;;;;;;1.63;1.25;;;;;;;;;;10516779;28;19999;-83
2023/03/07 18:00:37;;;;;;;2.05;1.40;;;;;;;;;;10516576;28;20457;-84
2023/03/07 18:05:58;;;;;;;4.10;2.10;;;;;;;;;;10513323;28;20036;-84
2023/03/07 18:11:07;;;;;;;2.20;1.73;;;;;;;;;;10513185;28;20029;-84
2023/03/07 18:16:08;;;;;;;2.65;2.17;;;;;;;;;;10513181;28;20024;-84
2023/03/07 18:32:45;;;;;;;2.90;1.60;;;;;;;;;;10393931;28;20034;-86
2023/03/07 18:55:28;;;;;;;1.98;1.40;;;;;;;;;;10376951;28;20030;-85
2023/03/07 19:29:12;;;;;;;1.58;1.45;;;;;;;;;;10291501;28;20027;-85
2023/03/07 19:35:10;;;;;;;2.00;1.60;;;;;;;;;;10270959;28;20206;-87
2023/03/07 19:57:57;;;;;;;4.28;3.60;;;;;;;;;;10140526;29;20024;-85
2023/03/07 20:09:11;;;;;;;4.75;3.78;;;;;;;;;;10062588;29;20036;-86
